sensor_id;sensor_type;location;lat;lon;timestamp;temperature;humidity
2158;DHT22;41972;48.774;9.282;2023-07-08T00:00:51;19.80;1.00
2158;DHT22;41972;48.774;9.282;2023-07-08T00:03:18;19.60;1.00
2158;DHT22;41972;48.774;9.282;2023-07-08T00:05:45;19.70;1.00
2158;DHT22;41972;48.774;9.282;2023-07-08T00:08:15;19.70;1.00
2158;DHT22;41972;48.774;9.282;2023-07-08T00:10:41;19.70;1.00
2158;DHT22;41972;48.774;9.282;2023-07-08T00:13:08;19.70;1.00
2158;DHT22;41972;48.774;9.282;2023-07-08T00:15:35;19.80;1.00
2158;DHT22;41972;48.774;9.282;2023-07-08T00:18:05;20.00;1.00
2158;DHT22;41972;48.774;9.282;2023-07-08T00:20:46;20.10;1.00
2158;DHT22;41972;48.774;9.282;2023-07-08T00:23:12;20.00;1.00
2158;DHT22;41972;48.774;9.282;2023-07-08T00:25:38;20.00;1.00
2158;DHT22;41972;48.774;9.282;2023-07-08T00:28:15;19.80;1.00
2158;DHT22;41972;48.774;9.282;2023-07-08T00:30:41;19.40;1.00
2158;DHT22;41972;48.774;9.282;2023-07-08T00:33:07;19.60;1.00
2158;DHT22;41972;48.774;9.282;2023-07-08T00:35:34;19.70;1.00
2158;DHT22;41972;48.774;9.282;2023-07-08T00:38:00;19.90;1.00
2158;DHT22;41972;48.774;9.282;2023-07-08T00:40:30;19.80;1.00
2158;DHT22;41972;48.774;9.282;2023-07-08T00:43:01;19.60;1.00
2158;DHT22;41972;48.774;9.282;2023-07-08T00:45:47;19.70;1.00
2158;DHT22;41972;48.774;9.282;2023-07-08T00:48:25;19.10;1.00
2158;DHT22;41972;48.774;9.282;2023-07-08T00:50:54;18.90;1.00
2158;DHT22;41972;48.774;9.282;2023-07-08T00:53:27;18.90;1.00
2158;DHT22;41972;48.774;9.282;2023-07-08T00:56:18;18.70;1.00
2158;DHT22;41972;48.774;9.282;2023-07-08T00:59:11;18.90;1.00
2158;DHT22;41972;48.774;9.282;2023-07-08T01:01:41;18.80;1.00
2158;DHT22;41972;48.774;9.282;2023-07-08T01:04:22;18.80;1.00
2158;DHT22;41972;48.774;9.282;2023-07-08T01:06:51;18.70;1.00
2158;DHT22;41972;48.774;9.282;2023-07-08T01:09:26;18.60;1.00
2158;DHT22;41972;48.774;9.282;2023-07-08T01:11:55;19.00;1.00
2158;DHT22;41972;48.774;9.282;2023-07-08T01:14:22;18.90;1.00
2158;DHT22;41972;48.774;9.282;2023-07-08T01:16:50;18.60;1.00
2158;DHT22;41972;48.774;9.282;2023-07-08T01:19:19;18.40;1.00
2158;DHT22;41972;48.774;9.282;2023-07-08T01:24:18;18.50;1.00
2158;DHT22;41972;48.774;9.282;2023-07-08T01:26:45;18.30;1.00
2158;DHT22;41972;48.774;9.282;2023-07-08T01:29:12;18.30;1.00
2158;DHT22;41972;48.774;9.282;2023-07-08T01:31:37;18.40;1.00
2158;DHT22;41972;48.774;9.282;2023-07-08T01:34:04;18.40;1.00
2158;DHT22;41972;48.774;9.282;2023-07-08T01:36:34;18.50;1.00
2158;DHT22;41972;48.774;9.282;2023-07-08T01:39:01;18.40;1.00
2158;DHT22;41972;48.774;9.282;2023-07-08T01:41:27;18.20;1.50
2158;DHT22;41972;48.774;9.282;2023-07-08T01:43:53;18.10;2.00
2158;DHT22;41972;48.774;9.282;2023-07-08T01:46:23;18.00;5.70
2158;DHT22;41972;48.774;9.282;2023-07-08T01:48:53;17.70;9.30
2158;DHT22;41972;48.774;9.282;2023-07-08T01:51:20;17.70;9.50
2158;DHT22;41972;48.774;9.282;2023-07-08T01:53:46;17.60;15.10
2158;DHT22;41972;48.774;9.282;2023-07-08T01:56:13;17.40;13.20
2158;DHT22;41972;48.774;9.282;2023-07-08T01:58:39;17.50;15.00
2158;DHT22;41972;48.774;9.282;2023-07-08T02:01:05;17.60;15.10
2158;DHT22;41972;48.774;9.282;2023-07-08T02:03:30;17.40;20.80
2158;DHT22;41972;48.774;9.282;2023-07-08T02:05:56;17.40;21.30
2158;DHT22;41972;48.774;9.282;2023-07-08T02:08:22;17.40;22.60
2158;DHT22;41972;48.774;9.282;2023-07-08T02:10:55;17.40;23.40
2158;DHT22;41972;48.774;9.282;2023-07-08T02:13:22;17.30;22.60
2158;DHT22;41972;48.774;9.282;2023-07-08T02:15:49;17.30;30.20
2158;DHT22;41972;48.774;9.282;2023-07-08T02:18:14;17.10;30.50
2158;DHT22;41972;48.774;9.282;2023-07-08T02:20:40;17.00;35.30
2158;DHT22;41972;48.774;9.282;2023-07-08T02:23:05;16.80;44.40
2158;DHT22;41972;48.774;9.282;2023-07-08T02:25:31;16.80;46.40
2158;DHT22;41972;48.774;9.282;2023-07-08T02:27:57;16.70;53.80
2158;DHT22;41972;48.774;9.282;2023-07-08T02:30:26;16.70;53.20
2158;DHT22;41972;48.774;9.282;2023-07-08T02:32:52;16.70;61.10
2158;DHT22;41972;48.774;9.282;2023-07-08T02:35:25;16.70;62.10
2158;DHT22;41972;48.774;9.282;2023-07-08T02:37:52;16.60;99.90
2158;DHT22;41972;48.774;9.282;2023-07-08T02:40:18;16.50;99.90
2158;DHT22;41972;48.774;9.282;2023-07-08T02:42:44;16.60;99.90
2158;DHT22;41972;48.774;9.282;2023-07-08T02:45:10;16.70;99.90
2158;DHT22;41972;48.774;9.282;2023-07-08T02:47:36;16.70;99.90
2158;DHT22;41972;48.774;9.282;2023-07-08T02:50:02;16.70;99.90
2158;DHT22;41972;48.774;9.282;2023-07-08T02:52:27;17.10;99.90
2158;DHT22;41972;48.774;9.282;2023-07-08T02:54:53;17.40;99.90
2158;DHT22;41972;48.774;9.282;2023-07-08T02:57:18;17.50;99.90
2158;DHT22;41972;48.774;9.282;2023-07-08T02:59:44;17.50;99.90
2158;DHT22;41972;48.774;9.282;2023-07-08T03:02:09;17.50;99.90
2158;DHT22;41972;48.774;9.282;2023-07-08T03:04:35;17.10;99.90
2158;DHT22;41972;48.774;9.282;2023-07-08T03:07:05;17.00;99.90
2158;DHT22;41972;48.774;9.282;2023-07-08T03:09:31;17.00;99.90
2158;DHT22;41972;48.774;9.282;2023-07-08T03:11:58;17.00;99.90
2158;DHT22;41972;48.774;9.282;2023-07-08T03:14:24;17.10;99.90
2158;DHT22;41972;48.774;9.282;2023-07-08T03:16:49;17.30;99.90
2158;DHT22;41972;48.774;9.282;2023-07-08T03:19:15;17.80;99.90
2158;DHT22;41972;48.774;9.282;2023-07-08T03:21:42;18.50;99.90
2158;DHT22;41972;48.774;9.282;2023-07-08T03:24:11;19.30;99.90
2158;DHT22;41972;48.774;9.282;2023-07-08T03:26:37;19.40;99.90
2158;DHT22;41972;48.774;9.282;2023-07-08T03:29:03;19.20;99.90
2158;DHT22;41972;48.774;9.282;2023-07-08T03:31:29;19.10;99.90
2158;DHT22;41972;48.774;9.282;2023-07-08T03:33:54;19.00;99.90
2158;DHT22;41972;48.774;9.282;2023-07-08T03:36:20;18.80;99.90
2158;DHT22;41972;48.774;9.282;2023-07-08T03:38:53;18.70;99.90
2158;DHT22;41972;48.774;9.282;2023-07-08T03:41:19;18.60;99.90
2158;DHT22;41972;48.774;9.282;2023-07-08T03:43:45;18.60;99.90
2158;DHT22;41972;48.774;9.282;2023-07-08T03:46:12;18.50;99.90
2158;DHT22;41972;48.774;9.282;2023-07-08T03:48:38;18.40;99.90
2158;DHT22;41972;48.774;9.282;2023-07-08T03:51:04;18.30;99.90
2158;DHT22;41972;48.774;9.282;2023-07-08T03:53:30;18.30;99.90
2158;DHT22;41972;48.774;9.282;2023-07-08T03:55:55;18.30;99.90
2158;DHT22;41972;48.774;9.282;2023-07-08T03:58:21;18.50;99.90
2158;DHT22;41972;48.774;9.282;2023-07-08T04:00:46;18.50;99.90
2158;DHT22;41972;48.774;9.282;2023-07-08T04:03:12;18.40;99.90
2158;DHT22;41972;48.774;9.282;2023-07-08T04:05:37;18.40;99.90
2158;DHT22;41972;48.774;9.282;2023-07-08T04:08:03;18.60;99.90
2158;DHT22;41972;48.774;9.282;2023-07-08T04:10:29;18.30;99.90
2158;DHT22;41972;48.774;9.282;2023-07-08T04:12:54;18.40;99.90
2158;DHT22;41972;48.774;9.282;2023-07-08T04:15:20;18.40;99.90
2158;DHT22;41972;48.774;9.282;2023-07-08T04:17:51;17.80;99.90
2158;DHT22;41972;48.774;9.282;2023-07-08T04:20:18;17.90;99.90
2158;DHT22;41972;48.774;9.282;2023-07-08T04:22:44;17.80;99.90
2158;DHT22;41972;48.774;9.282;2023-07-08T04:25:11;18.00;99.90
2158;DHT22;41972;48.774;9.282;2023-07-08T04:27:38;18.70;99.90
2158;DHT22;41972;48.774;9.282;2023-07-08T04:30:04;19.50;99.90
2158;DHT22;41972;48.774;9.282;2023-07-08T04:32:30;19.80;99.90
2158;DHT22;41972;48.774;9.282;2023-07-08T04:34:55;21.00;99.90
2158;DHT22;41972;48.774;9.282;2023-07-08T04:37:21;21.70;99.90
2158;DHT22;41972;48.774;9.282;2023-07-08T04:39:47;23.20;34.20
2158;DHT22;41972;48.774;9.282;2023-07-08T04:42:14;23.30;29.10
2158;DHT22;41972;48.774;9.282;2023-07-08T04:44:41;25.30;24.50
2158;DHT22;41972;48.774;9.282;2023-07-08T04:47:07;26.50;22.60
2158;DHT22;41972;48.774;9.282;2023-07-08T04:49:34;26.00;15.10
2158;DHT22;41972;48.774;9.282;2023-07-08T04:52:00;22.60;20.10
2158;DHT22;41972;48.774;9.282;2023-07-08T04:54:27;22.60;31.10
2158;DHT22;41972;48.774;9.282;2023-07-08T04:56:53;24.60;30.70
2158;DHT22;41972;48.774;9.282;2023-07-08T04:59:21;27.40;12.40
2158;DHT22;41972;48.774;9.282;2023-07-08T05:01:47;27.00;7.40
2158;DHT22;41972;48.774;9.282;2023-07-08T05:04:14;27.30;2.90
2158;DHT22;41972;48.774;9.282;2023-07-08T05:06:40;28.30;2.50
2158;DHT22;41972;48.774;9.282;2023-07-08T05:09:07;28.90;1.00
2158;DHT22;41972;48.774;9.282;2023-07-08T05:11:33;29.80;99.90
2158;DHT22;41972;48.774;9.282;2023-07-08T05:14:00;31.00;99.90
2158;DHT22;41972;48.774;9.282;2023-07-08T05:16:26;32.50;99.90
2158;DHT22;41972;48.774;9.282;2023-07-08T05:18:51;31.80;99.90
2158;DHT22;41972;48.774;9.282;2023-07-08T05:21:19;32.80;1.00
2158;DHT22;41972;48.774;9.282;2023-07-08T05:23:46;32.50;1.00
2158;DHT22;41972;48.774;9.282;2023-07-08T05:26:11;31.60;1.00
2158;DHT22;41972;48.774;9.282;2023-07-08T05:28:37;31.60;1.00
2158;DHT22;41972;48.774;9.282;2023-07-08T05:31:03;30.40;1.00
2158;DHT22;41972;48.774;9.282;2023-07-08T05:33:30;30.30;99.90
2158;DHT22;41972;48.774;9.282;2023-07-08T05:35:56;30.90;1.00
2158;DHT22;41972;48.774;9.282;2023-07-08T05:38:24;31.00;1.00
2158;DHT22;41972;48.774;9.282;2023-07-08T05:40:51;31.80;1.00
2158;DHT22;41972;48.774;9.282;2023-07-08T05:43:18;32.00;1.00
2158;DHT22;41972;48.774;9.282;2023-07-08T05:45:44;31.70;1.00
2158;DHT22;41972;48.774;9.282;2023-07-08T05:48:10;30.10;1.00
2158;DHT22;41972;48.774;9.282;2023-07-08T05:50:36;27.50;1.00
2158;DHT22;41972;48.774;9.282;2023-07-08T05:53:01;26.80;99.90
2158;DHT22;41972;48.774;9.282;2023-07-08T05:55:27;25.90;99.90
2158;DHT22;41972;48.774;9.282;2023-07-08T05:57:52;25.50;99.90
2158;DHT22;41972;48.774;9.282;2023-07-08T06:00:18;25.70;99.90
2158;DHT22;41972;48.774;9.282;2023-07-08T06:02:44;26.30;99.90
2158;DHT22;41972;48.774;9.282;2023-07-08T06:05:09;26.80;99.90
2158;DHT22;41972;48.774;9.282;2023-07-08T06:07:35;26.00;99.90
2158;DHT22;41972;48.774;9.282;2023-07-08T06:10:00;25.90;99.90
2158;DHT22;41972;48.774;9.282;2023-07-08T06:12:27;25.40;99.90
2158;DHT22;41972;48.774;9.282;2023-07-08T06:14:52;25.60;99.90
2158;DHT22;41972;48.774;9.282;2023-07-08T06:17:18;26.00;99.90
2158;DHT22;41972;48.774;9.282;2023-07-08T06:19:44;26.40;99.90
2158;DHT22;41972;48.774;9.282;2023-07-08T06:22:10;26.20;99.90
2158;DHT22;41972;48.774;9.282;2023-07-08T06:24:35;26.60;99.90
2158;DHT22;41972;48.774;9.282;2023-07-08T06:27:01;27.80;99.90
2158;DHT22;41972;48.774;9.282;2023-07-08T06:29:27;29.20;99.90
2158;DHT22;41972;48.774;9.282;2023-07-08T06:31:53;29.50;99.90
2158;DHT22;41972;48.774;9.282;2023-07-08T06:34:19;29.40;99.90
2158;DHT22;41972;48.774;9.282;2023-07-08T06:36:47;30.10;99.90
2158;DHT22;41972;48.774;9.282;2023-07-08T06:39:13;30.30;99.90
2158;DHT22;41972;48.774;9.282;2023-07-08T06:41:38;30.40;99.90
2158;DHT22;41972;48.774;9.282;2023-07-08T06:44:04;30.30;99.90
2158;DHT22;41972;48.774;9.282;2023-07-08T06:46:31;29.00;99.90
2158;DHT22;41972;48.774;9.282;2023-07-08T06:48:57;26.40;99.90
2158;DHT22;41972;48.774;9.282;2023-07-08T06:51:22;26.30;1.00
2158;DHT22;41972;48.774;9.282;2023-07-08T06:53:48;26.20;1.00
2158;DHT22;41972;48.774;9.282;2023-07-08T06:56:14;26.90;1.00
2158;DHT22;41972;48.774;9.282;2023-07-08T06:58:39;26.60;1.00
2158;DHT22;41972;48.774;9.282;2023-07-08T07:01:05;26.50;1.00
2158;DHT22;41972;48.774;9.282;2023-07-08T07:03:30;26.00;1.00
2158;DHT22;41972;48.774;9.282;2023-07-08T07:05:56;26.70;1.00
2158;DHT22;41972;48.774;9.282;2023-07-08T07:08:22;26.90;1.00
2158;DHT22;41972;48.774;9.282;2023-07-08T07:10:47;26.70;1.00
2158;DHT22;41972;48.774;9.282;2023-07-08T07:13:13;24.90;1.00
2158;DHT22;41972;48.774;9.282;2023-07-08T07:15:38;24.70;1.00
2158;DHT22;41972;48.774;9.282;2023-07-08T07:18:04;24.70;1.00
2158;DHT22;41972;48.774;9.282;2023-07-08T07:20:30;24.70;1.80
2158;DHT22;41972;48.774;9.282;2023-07-08T07:22:56;24.30;3.30
2158;DHT22;41972;48.774;9.282;2023-07-08T07:25:22;24.40;2.20
2158;DHT22;41972;48.774;9.282;2023-07-08T07:27:47;24.50;5.20
2158;DHT22;41972;48.774;9.282;2023-07-08T07:30:13;25.00;2.40
2158;DHT22;41972;48.774;9.282;2023-07-08T07:32:41;25.20;1.90
2158;DHT22;41972;48.774;9.282;2023-07-08T07:35:07;25.50;3.60
2158;DHT22;41972;48.774;9.282;2023-07-08T07:37:33;25.80;3.30
2158;DHT22;41972;48.774;9.282;2023-07-08T07:39:58;26.10;1.70
2158;DHT22;41972;48.774;9.282;2023-07-08T07:42:27;26.00;1.00
2158;DHT22;41972;48.774;9.282;2023-07-08T07:44:53;26.00;1.00
2158;DHT22;41972;48.774;9.282;2023-07-08T07:47:18;26.20;1.00
2158;DHT22;41972;48.774;9.282;2023-07-08T07:49:44;26.70;1.00
2158;DHT22;41972;48.774;9.282;2023-07-08T07:52:09;26.60;1.00
2158;DHT22;41972;48.774;9.282;2023-07-08T07:54:37;26.60;1.00
2158;DHT22;41972;48.774;9.282;2023-07-08T07:57:03;26.60;2.80
2158;DHT22;41972;48.774;9.282;2023-07-08T07:59:28;26.10;3.70
2158;DHT22;41972;48.774;9.282;2023-07-08T08:01:54;26.40;1.30
2158;DHT22;41972;48.774;9.282;2023-07-08T08:04:20;27.30;1.80
2158;DHT22;41972;48.774;9.282;2023-07-08T08:06:45;28.50;1.00
2158;DHT22;41972;48.774;9.282;2023-07-08T08:09:12;30.00;1.00
2158;DHT22;41972;48.774;9.282;2023-07-08T08:11:38;32.20;1.00
2158;DHT22;41972;48.774;9.282;2023-07-08T08:14:04;33.80;99.90
2158;DHT22;41972;48.774;9.282;2023-07-08T08:16:29;35.20;99.90
2158;DHT22;41972;48.774;9.282;2023-07-08T08:18:56;35.90;99.90
2158;DHT22;41972;48.774;9.282;2023-07-08T08:21:21;38.70;99.90
2158;DHT22;41972;48.774;9.282;2023-07-08T08:23:47;38.00;99.90
2158;DHT22;41972;48.774;9.282;2023-07-08T08:26:13;34.60;99.90
2158;DHT22;41972;48.774;9.282;2023-07-08T08:28:39;33.30;99.90
2158;DHT22;41972;48.774;9.282;2023-07-08T08:31:05;33.50;99.90
2158;DHT22;41972;48.774;9.282;2023-07-08T08:33:31;31.30;99.90
2158;DHT22;41972;48.774;9.282;2023-07-08T08:35:56;32.10;99.90
2158;DHT22;41972;48.774;9.282;2023-07-08T08:38:22;33.10;99.90
2158;DHT22;41972;48.774;9.282;2023-07-08T08:40:48;34.90;99.90
2158;DHT22;41972;48.774;9.282;2023-07-08T08:43:18;34.30;99.90
2158;DHT22;41972;48.774;9.282;2023-07-08T08:49:08;32.20;99.90
2158;DHT22;41972;48.774;9.282;2023-07-08T08:51:38;29.00;99.90
2158;DHT22;41972;48.774;9.282;2023-07-08T08:54:05;31.00;99.90
2158;DHT22;41972;48.774;9.282;2023-07-08T08:59:45;30.20;99.90
2158;DHT22;41972;48.774;9.282;2023-07-08T09:02:38;28.80;99.90
2158;DHT22;41972;48.774;9.282;2023-07-08T09:05:09;29.30;99.90
2158;DHT22;41972;48.774;9.282;2023-07-08T09:10:55;31.20;99.90
2158;DHT22;41972;48.774;9.282;2023-07-08T09:13:25;37.20;99.90
2158;DHT22;41972;48.774;9.282;2023-07-08T09:18:56;37.90;1.00
2158;DHT22;41972;48.774;9.282;2023-07-08T09:21:35;36.10;1.00
2158;DHT22;41972;48.774;9.282;2023-07-08T09:24:32;37.40;1.00
2158;DHT22;41972;48.774;9.282;2023-07-08T09:26:55;37.60;1.00
2158;DHT22;41972;48.774;9.282;2023-07-08T09:29:23;34.10;1.00
2158;DHT22;41972;48.774;9.282;2023-07-08T09:31:49;35.60;1.00
2158;DHT22;41972;48.774;9.282;2023-07-08T09:34:21;36.40;1.00
2158;DHT22;41972;48.774;9.282;2023-07-08T09:36:49;37.10;1.00
2158;DHT22;41972;48.774;9.282;2023-07-08T09:39:19;38.70;1.00
2158;DHT22;41972;48.774;9.282;2023-07-08T09:41:47;40.60;1.00
2158;DHT22;41972;48.774;9.282;2023-07-08T09:44:24;35.70;1.00
2158;DHT22;41972;48.774;9.282;2023-07-08T09:46:56;33.90;1.00
2158;DHT22;41972;48.774;9.282;2023-07-08T09:49:31;35.40;1.00
2158;DHT22;41972;48.774;9.282;2023-07-08T09:51:57;34.40;1.00
2158;DHT22;41972;48.774;9.282;2023-07-08T09:54:25;34.00;1.00
2158;DHT22;41972;48.774;9.282;2023-07-08T09:57:09;34.80;1.00
2158;DHT22;41972;48.774;9.282;2023-07-08T09:59:47;33.60;1.00
2158;DHT22;41972;48.774;9.282;2023-07-08T10:02:31;33.10;1.00
2158;DHT22;41972;48.774;9.282;2023-07-08T10:05:17;35.10;1.00
2158;DHT22;41972;48.774;9.282;2023-07-08T10:07:44;33.40;1.00
2158;DHT22;41972;48.774;9.282;2023-07-08T10:10:15;31.90;1.00
2158;DHT22;41972;48.774;9.282;2023-07-08T10:12:51;31.00;1.00
2158;DHT22;41972;48.774;9.282;2023-07-08T10:15:24;30.70;1.00
2158;DHT22;41972;48.774;9.282;2023-07-08T10:17:52;32.30;1.00
2158;DHT22;41972;48.774;9.282;2023-07-08T10:20:19;31.80;1.00
2158;DHT22;41972;48.774;9.282;2023-07-08T10:22:56;30.50;1.00
2158;DHT22;41972;48.774;9.282;2023-07-08T10:28:24;29.10;8.60
2158;DHT22;41972;48.774;9.282;2023-07-08T10:31:11;28.90;1.00
2158;DHT22;41972;48.774;9.282;2023-07-08T10:41:58;30.10;1.00
2158;DHT22;41972;48.774;9.282;2023-07-08T10:47:32;29.70;1.00
2158;DHT22;41972;48.774;9.282;2023-07-08T10:55:28;35.40;1.00
2158;DHT22;41972;48.774;9.282;2023-07-08T10:58:36;34.30;1.00
2158;DHT22;41972;48.774;9.282;2023-07-08T11:06:55;31.30;1.00
2158;DHT22;41972;48.774;9.282;2023-07-08T11:09:33;33.00;1.00
2158;DHT22;41972;48.774;9.282;2023-07-08T11:12:08;31.80;1.00
2158;DHT22;41972;48.774;9.282;2023-07-08T11:14:42;30.00;1.00
2158;DHT22;41972;48.774;9.282;2023-07-08T11:17:22;29.90;1.00
2158;DHT22;41972;48.774;9.282;2023-07-08T11:20:17;30.60;1.00
2158;DHT22;41972;48.774;9.282;2023-07-08T11:22:53;30.40;1.00
2158;DHT22;41972;48.774;9.282;2023-07-08T11:25:21;30.20;1.00
2158;DHT22;41972;48.774;9.282;2023-07-08T11:27:52;30.40;1.00
2158;DHT22;41972;48.774;9.282;2023-07-08T11:30:22;30.40;1.00
2158;DHT22;41972;48.774;9.282;2023-07-08T11:33:04;30.70;1.00
2158;DHT22;41972;48.774;9.282;2023-07-08T11:35:51;30.20;1.00
2158;DHT22;41972;48.774;9.282;2023-07-08T11:38:20;29.70;1.00
2158;DHT22;41972;48.774;9.282;2023-07-08T11:43:21;30.50;1.00
2158;DHT22;41972;48.774;9.282;2023-07-08T11:45:50;30.00;1.00
2158;DHT22;41972;48.774;9.282;2023-07-08T11:48:29;30.00;1.00
2158;DHT22;41972;48.774;9.282;2023-07-08T11:50:55;30.20;1.00
2158;DHT22;41972;48.774;9.282;2023-07-08T11:58:31;30.70;1.00
2158;DHT22;41972;48.774;9.282;2023-07-08T12:03:34;30.20;1.00
2158;DHT22;41972;48.774;9.282;2023-07-08T12:06:00;29.80;1.00
2158;DHT22;41972;48.774;9.282;2023-07-08T12:08:37;29.60;1.00
2158;DHT22;41972;48.774;9.282;2023-07-08T12:11:11;29.30;1.00
2158;DHT22;41972;48.774;9.282;2023-07-08T12:13:37;29.80;1.00
2158;DHT22;41972;48.774;9.282;2023-07-08T12:16:03;29.80;1.00
2158;DHT22;41972;48.774;9.282;2023-07-08T12:18:36;30.10;1.00
2158;DHT22;41972;48.774;9.282;2023-07-08T12:21:04;30.30;1.00
2158;DHT22;41972;48.774;9.282;2023-07-08T12:23:30;30.70;1.00
2158;DHT22;41972;48.774;9.282;2023-07-08T12:25:57;31.00;1.00
2158;DHT22;41972;48.774;9.282;2023-07-08T12:28:24;30.90;1.00
2158;DHT22;41972;48.774;9.282;2023-07-08T12:30:50;30.60;1.00
2158;DHT22;41972;48.774;9.282;2023-07-08T12:33:36;30.30;1.00
2158;DHT22;41972;48.774;9.282;2023-07-08T12:36:05;30.40;1.00
2158;DHT22;41972;48.774;9.282;2023-07-08T12:38:33;30.20;1.00
2158;DHT22;41972;48.774;9.282;2023-07-08T12:41:02;30.10;1.00
2158;DHT22;41972;48.774;9.282;2023-07-08T12:43:30;30.30;1.00
2158;DHT22;41972;48.774;9.282;2023-07-08T12:45:56;30.20;1.00
2158;DHT22;41972;48.774;9.282;2023-07-08T12:48:21;30.00;1.00
2158;DHT22;41972;48.774;9.282;2023-07-08T12:50:47;30.30;1.00
2158;DHT22;41972;48.774;9.282;2023-07-08T12:53:15;30.60;1.00
2158;DHT22;41972;48.774;9.282;2023-07-08T12:55:43;30.60;1.00
2158;DHT22;41972;48.774;9.282;2023-07-08T12:58:13;30.90;1.00
2158;DHT22;41972;48.774;9.282;2023-07-08T13:00:40;31.10;1.00
2158;DHT22;41972;48.774;9.282;2023-07-08T13:03:15;30.90;1.00
2158;DHT22;41972;48.774;9.282;2023-07-08T13:05:42;31.00;1.00
2158;DHT22;41972;48.774;9.282;2023-07-08T13:08:17;31.40;1.00
2158;DHT22;41972;48.774;9.282;2023-07-08T13:10:44;31.40;1.00
2158;DHT22;41972;48.774;9.282;2023-07-08T13:13:25;31.10;1.00
2158;DHT22;41972;48.774;9.282;2023-07-08T13:15:52;31.10;1.00
2158;DHT22;41972;48.774;9.282;2023-07-08T13:18:41;31.20;1.00
2158;DHT22;41972;48.774;9.282;2023-07-08T13:21:08;31.30;1.00
2158;DHT22;41972;48.774;9.282;2023-07-08T13:23:35;31.50;1.00
2158;DHT22;41972;48.774;9.282;2023-07-08T13:26:15;31.60;1.00
2158;DHT22;41972;48.774;9.282;2023-07-08T13:28:42;31.70;1.00
2158;DHT22;41972;48.774;9.282;2023-07-08T13:31:19;31.50;1.00
2158;DHT22;41972;48.774;9.282;2023-07-08T13:33:54;31.50;1.00
2158;DHT22;41972;48.774;9.282;2023-07-08T13:36:31;31.50;1.00
2158;DHT22;41972;48.774;9.282;2023-07-08T13:39:05;31.70;1.00
2158;DHT22;41972;48.774;9.282;2023-07-08T13:41:31;31.50;1.00
2158;DHT22;41972;48.774;9.282;2023-07-08T13:43:57;31.70;1.00
2158;DHT22;41972;48.774;9.282;2023-07-08T13:46:49;31.20;1.00
2158;DHT22;41972;48.774;9.282;2023-07-08T13:49:30;31.40;1.00
2158;DHT22;41972;48.774;9.282;2023-07-08T13:57:16;31.80;1.00
2158;DHT22;41972;48.774;9.282;2023-07-08T13:59:42;31.70;1.00
2158;DHT22;41972;48.774;9.282;2023-07-08T14:02:25;31.80;1.00
2158;DHT22;41972;48.774;9.282;2023-07-08T14:04:52;31.80;1.00
2158;DHT22;41972;48.774;9.282;2023-07-08T14:07:22;31.70;1.00
2158;DHT22;41972;48.774;9.282;2023-07-08T14:09:48;31.60;1.00
2158;DHT22;41972;48.774;9.282;2023-07-08T14:12:13;31.50;1.00
2158;DHT22;41972;48.774;9.282;2023-07-08T14:14:39;31.70;1.00
2158;DHT22;41972;48.774;9.282;2023-07-08T14:17:07;31.50;1.00
2158;DHT22;41972;48.774;9.282;2023-07-08T14:19:33;31.50;1.00
2158;DHT22;41972;48.774;9.282;2023-07-08T14:22:02;31.70;1.00
2158;DHT22;41972;48.774;9.282;2023-07-08T14:24:36;31.70;1.00
2158;DHT22;41972;48.774;9.282;2023-07-08T14:27:01;31.50;1.00
2158;DHT22;41972;48.774;9.282;2023-07-08T14:29:27;31.60;1.00
2158;DHT22;41972;48.774;9.282;2023-07-08T14:31:52;31.50;1.00
2158;DHT22;41972;48.774;9.282;2023-07-08T14:34:26;31.30;1.00
2158;DHT22;41972;48.774;9.282;2023-07-08T14:36:52;31.30;1.00
2158;DHT22;41972;48.774;9.282;2023-07-08T14:39:19;31.20;1.00
2158;DHT22;41972;48.774;9.282;2023-07-08T14:41:46;31.20;1.00
2158;DHT22;41972;48.774;9.282;2023-07-08T14:44:30;31.40;1.00
2158;DHT22;41972;48.774;9.282;2023-07-08T14:46:55;31.20;1.00
2158;DHT22;41972;48.774;9.282;2023-07-08T14:49:23;31.30;1.00
2158;DHT22;41972;48.774;9.282;2023-07-08T14:51:49;31.50;1.00
2158;DHT22;41972;48.774;9.282;2023-07-08T14:54:15;31.40;1.00
2158;DHT22;41972;48.774;9.282;2023-07-08T14:56:41;31.70;1.00
2158;DHT22;41972;48.774;9.282;2023-07-08T14:59:13;31.70;1.00
2158;DHT22;41972;48.774;9.282;2023-07-08T15:01:40;31.30;1.00
2158;DHT22;41972;48.774;9.282;2023-07-08T15:04:11;31.50;1.00
2158;DHT22;41972;48.774;9.282;2023-07-08T15:06:36;31.30;1.00
2158;DHT22;41972;48.774;9.282;2023-07-08T15:09:02;31.40;1.00
2158;DHT22;41972;48.774;9.282;2023-07-08T15:11:28;31.50;1.00
2158;DHT22;41972;48.774;9.282;2023-07-08T15:13:54;31.60;1.00
2158;DHT22;41972;48.774;9.282;2023-07-08T15:16:20;31.60;1.00
2158;DHT22;41972;48.774;9.282;2023-07-08T15:18:45;31.90;1.00
2158;DHT22;41972;48.774;9.282;2023-07-08T15:21:12;32.10;1.00
2158;DHT22;41972;48.774;9.282;2023-07-08T15:23:38;32.30;1.00
2158;DHT22;41972;48.774;9.282;2023-07-08T15:26:03;32.40;1.00
2158;DHT22;41972;48.774;9.282;2023-07-08T15:31:09;31.70;1.00
2158;DHT22;41972;48.774;9.282;2023-07-08T15:33:36;31.40;1.00
2158;DHT22;41972;48.774;9.282;2023-07-08T15:36:02;31.50;1.00
2158;DHT22;41972;48.774;9.282;2023-07-08T15:38:28;31.80;1.00
2158;DHT22;41972;48.774;9.282;2023-07-08T15:40:53;31.90;1.00
2158;DHT22;41972;48.774;9.282;2023-07-08T15:43:19;31.80;1.00
2158;DHT22;41972;48.774;9.282;2023-07-08T15:45:45;31.60;1.00
2158;DHT22;41972;48.774;9.282;2023-07-08T15:48:14;31.70;1.00
2158;DHT22;41972;48.774;9.282;2023-07-08T15:50:40;31.50;1.00
2158;DHT22;41972;48.774;9.282;2023-07-08T15:53:07;31.50;1.00
2158;DHT22;41972;48.774;9.282;2023-07-08T15:55:36;31.60;1.00
2158;DHT22;41972;48.774;9.282;2023-07-08T15:58:06;31.50;1.00
2158;DHT22;41972;48.774;9.282;2023-07-08T16:00:37;31.50;1.00
2158;DHT22;41972;48.774;9.282;2023-07-08T16:03:09;31.50;1.00
2158;DHT22;41972;48.774;9.282;2023-07-08T16:05:35;31.60;1.00
2158;DHT22;41972;48.774;9.282;2023-07-08T16:08:01;31.60;1.00
2158;DHT22;41972;48.774;9.282;2023-07-08T16:10:28;31.50;1.00
2158;DHT22;41972;48.774;9.282;2023-07-08T16:12:54;31.20;1.00
2158;DHT22;41972;48.774;9.282;2023-07-08T16:15:32;31.30;1.00
2158;DHT22;41972;48.774;9.282;2023-07-08T16:17:59;31.30;1.00
2158;DHT22;41972;48.774;9.282;2023-07-08T16:20:27;31.50;1.00
2158;DHT22;41972;48.774;9.282;2023-07-08T16:22:53;31.60;1.00
2158;DHT22;41972;48.774;9.282;2023-07-08T16:25:24;31.50;1.00
2158;DHT22;41972;48.774;9.282;2023-07-08T16:27:50;31.60;1.00
2158;DHT22;41972;48.774;9.282;2023-07-08T16:30:19;31.50;1.00
2158;DHT22;41972;48.774;9.282;2023-07-08T16:32:45;31.50;1.00
2158;DHT22;41972;48.774;9.282;2023-07-08T16:35:16;31.30;1.00
2158;DHT22;41972;48.774;9.282;2023-07-08T16:37:43;31.20;1.00
2158;DHT22;41972;48.774;9.282;2023-07-08T16:40:20;31.30;1.00
2158;DHT22;41972;48.774;9.282;2023-07-08T16:42:48;31.20;1.00
2158;DHT22;41972;48.774;9.282;2023-07-08T16:45:16;31.30;1.00
2158;DHT22;41972;48.774;9.282;2023-07-08T16:47:43;31.40;1.00
2158;DHT22;41972;48.774;9.282;2023-07-08T16:50:10;31.50;1.00
2158;DHT22;41972;48.774;9.282;2023-07-08T16:52:36;31.50;1.00
2158;DHT22;41972;48.774;9.282;2023-07-08T16:55:12;31.40;1.00
2158;DHT22;41972;48.774;9.282;2023-07-08T16:57:37;31.20;1.00
2158;DHT22;41972;48.774;9.282;2023-07-08T17:00:04;30.90;1.00
2158;DHT22;41972;48.774;9.282;2023-07-08T17:02:30;31.00;1.00
2158;DHT22;41972;48.774;9.282;2023-07-08T17:04:57;31.00;1.00